createdAt,value
2019-01-17T00:00:28.715Z,984.46
2019-01-17T00:01:28.699Z,984.38
2019-01-17T00:02:28.673Z,984.34
2019-01-17T00:03:28.646Z,984.44
2019-01-17T00:04:28.623Z,984.40
2019-01-17T00:05:28.597Z,984.48
2019-01-17T00:06:28.575Z,984.42
2019-01-17T00:07:28.552Z,984.50
2019-01-17T00:08:28.530Z,984.49
2019-01-17T00:09:28.508Z,984.45
2019-01-17T00:10:28.489Z,984.45
2019-01-17T00:11:28.459Z,984.48
2019-01-17T00:12:28.437Z,984.47
2019-01-17T00:13:28.421Z,984.55
2019-01-17T00:14:28.395Z,984.43
2019-01-17T00:15:28.367Z,984.45
2019-01-17T00:16:28.351Z,984.44
2019-01-17T00:17:28.329Z,984.45
2019-01-17T00:18:28.299Z,984.48
2019-01-17T00:19:28.274Z,984.50
2019-01-17T00:20:28.259Z,984.57
2019-01-17T00:21:28.236Z,984.50
2019-01-17T00:22:28.210Z,984.48
2019-01-17T00:23:28.182Z,984.45
2019-01-17T00:24:28.167Z,984.52
2019-01-17T00:25:28.145Z,984.49
2019-01-17T00:26:28.121Z,984.48
2019-01-17T00:27:28.089Z,984.61
2019-01-17T00:28:28.073Z,984.51
2019-01-17T00:29:28.047Z,984.55
2019-01-17T00:30:28.026Z,984.53
2019-01-17T00:31:28.004Z,984.58
2019-01-17T00:32:27.981Z,984.53
2019-01-17T00:33:27.956Z,984.65
2019-01-17T00:34:27.933Z,984.63
2019-01-17T00:35:27.911Z,984.67
2019-01-17T00:36:27.886Z,984.63
2019-01-17T00:37:27.857Z,984.69
2019-01-17T00:38:27.834Z,984.68
2019-01-17T00:39:27.819Z,984.67
2019-01-17T00:40:27.797Z,984.60
2019-01-17T00:41:27.768Z,984.65
2019-01-17T00:42:27.749Z,984.63
2019-01-17T00:43:27.720Z,984.71
2019-01-17T00:44:27.701Z,984.59
2019-01-17T00:45:27.675Z,984.56
2019-01-17T00:46:27.657Z,984.56
2019-01-17T00:47:27.630Z,984.66
2019-01-17T00:48:27.610Z,984.45
2019-01-17T00:49:27.584Z,984.51
2019-01-17T00:50:27.562Z,984.53
2019-01-17T00:51:27.534Z,984.44
2019-01-17T00:52:27.518Z,984.39
2019-01-17T00:53:27.495Z,984.41
2019-01-17T00:54:27.469Z,984.41
2019-01-17T00:55:27.446Z,984.44
2019-01-17T00:56:27.425Z,984.40
2019-01-17T00:57:27.397Z,984.35
2019-01-17T00:58:27.372Z,984.35
2019-01-17T00:59:27.349Z,984.25
2019-01-17T01:00:27.333Z,984.17
2019-01-17T01:01:27.301Z,984.19
2019-01-17T01:02:27.279Z,984.23
2019-01-17T01:03:27.256Z,984.30
2019-01-17T01:04:27.260Z,984.24
2019-01-17T01:05:27.215Z,984.18
2019-01-17T01:06:27.186Z,984.12
2019-01-17T01:07:27.165Z,984.13
2019-01-17T01:08:27.147Z,984.16
2019-01-17T01:09:27.121Z,984.15
2019-01-17T01:10:27.095Z,984.17
2019-01-17T01:11:27.070Z,984.20
2019-01-17T01:12:27.051Z,984.09
2019-01-17T01:13:27.028Z,984.12
2019-01-17T01:14:26.999Z,984.13
2019-01-17T01:15:26.983Z,984.15
2019-01-17T01:16:26.954Z,984.10
2019-01-17T01:17:26.929Z,984.11
2019-01-17T01:18:26.913Z,984.10
2019-01-17T01:19:26.891Z,984.09
2019-01-17T01:20:26.867Z,984.03
2019-01-17T01:21:26.836Z,984.04
2019-01-17T01:22:26.813Z,984.10
2019-01-17T01:23:26.791Z,984.25
2019-01-17T01:24:26.768Z,983.99
2019-01-17T01:25:26.749Z,984.05
2019-01-17T01:26:26.727Z,984.01
2019-01-17T01:27:26.698Z,983.99
2019-01-17T01:28:26.682Z,984.00
2019-01-17T01:29:26.650Z,984.01
2019-01-17T01:30:26.635Z,983.97
2019-01-17T01:31:26.605Z,984.02
2019-01-17T01:32:26.589Z,984.03
2019-01-17T01:33:26.557Z,983.98
2019-01-17T01:34:26.535Z,984.07
2019-01-17T01:35:26.512Z,984.09
2019-01-17T01:36:26.496Z,984.08
2019-01-17T01:37:26.467Z,983.98
2019-01-17T01:38:26.442Z,983.99
2019-01-17T01:39:26.424Z,984.00
2019-01-17T01:40:26.395Z,984.01
2019-01-17T01:41:26.379Z,983.97
2019-01-17T01:42:26.354Z,984.06
2019-01-17T01:43:26.344Z,984.04
2019-01-17T01:44:26.309Z,984.07
2019-01-17T01:45:26.284Z,984.10
2019-01-17T01:46:26.255Z,984.13
2019-01-17T01:47:26.233Z,984.09
2019-01-17T01:48:26.217Z,984.15
2019-01-17T01:49:26.191Z,984.10
2019-01-17T01:50:26.163Z,984.15
2019-01-17T01:51:26.140Z,984.02
2019-01-17T01:52:26.125Z,984.07
2019-01-17T01:53:26.099Z,984.03
2019-01-17T01:54:26.070Z,983.99
2019-01-17T01:55:26.053Z,984.02
2019-01-17T01:56:26.032Z,984.06
2019-01-17T01:57:26.007Z,984.02
2019-01-17T01:58:25.977Z,984.06
2019-01-17T01:59:25.955Z,983.95
2019-01-17T02:00:25.933Z,984.04
2019-01-17T02:01:25.917Z,984.02
2019-01-17T02:02:25.892Z,984.04
2019-01-17T02:03:25.865Z,984.05
2019-01-17T02:04:25.840Z,984.03
2019-01-17T02:05:25.821Z,983.96
2019-01-17T02:06:25.792Z,984.03
2019-01-17T02:07:25.776Z,984.06
2019-01-17T02:08:25.754Z,984.03
2019-01-17T02:09:25.739Z,984.00
2019-01-17T02:10:25.699Z,984.06
2019-01-17T02:11:25.683Z,984.08
2019-01-17T02:12:25.655Z,984.06
2019-01-17T02:13:25.631Z,984.04
2019-01-17T02:14:25.614Z,984.08
2019-01-17T02:15:25.589Z,984.02
2019-01-17T02:16:25.563Z,984.03
2019-01-17T02:17:25.545Z,984.01
2019-01-17T02:18:25.518Z,983.98
2019-01-17T02:19:25.496Z,983.96
2019-01-17T02:20:25.481Z,983.96
2019-01-17T02:21:25.462Z,984.02
2019-01-17T02:22:25.423Z,983.97
2019-01-17T02:23:25.407Z,983.88
2019-01-17T02:24:28.560Z,983.94
2019-01-17T02:25:25.356Z,983.94
2019-01-17T02:26:25.331Z,983.97
2019-01-17T02:27:25.308Z,983.87
2019-01-17T02:28:25.283Z,983.90
2019-01-17T02:29:25.267Z,983.98
2019-01-17T02:30:25.241Z,983.92
2019-01-17T02:31:25.217Z,983.91
2019-01-17T02:32:25.201Z,983.90
2019-01-17T02:33:25.176Z,983.86
2019-01-17T02:34:25.155Z,983.96
2019-01-17T02:35:25.132Z,983.97
2019-01-17T02:36:25.109Z,984.03
2019-01-17T02:37:25.076Z,983.95
2019-01-17T02:38:25.054Z,984.00
2019-01-17T02:39:25.040Z,983.93
2019-01-17T02:40:25.017Z,983.91
2019-01-17T02:41:24.991Z,983.94
2019-01-17T02:42:24.969Z,983.91
2019-01-17T02:43:24.945Z,983.88
2019-01-17T02:44:24.921Z,983.96
2019-01-17T02:45:24.901Z,983.88
2019-01-17T02:46:24.870Z,983.83
2019-01-17T02:47:24.848Z,983.82
2019-01-17T02:48:24.828Z,983.83
2019-01-17T02:49:24.808Z,983.80
2019-01-17T02:50:24.778Z,983.82
2019-01-17T02:51:24.761Z,983.80
2019-01-17T02:52:24.735Z,983.76
2019-01-17T02:53:24.716Z,983.71
2019-01-17T02:54:24.687Z,983.75
2019-01-17T02:55:24.666Z,983.73
2019-01-17T02:56:24.639Z,983.76
2019-01-17T02:57:24.613Z,983.74
2019-01-17T02:58:24.600Z,983.78
2019-01-17T02:59:24.571Z,983.78
2019-01-17T03:00:24.555Z,983.77
2019-01-17T03:01:24.526Z,983.70
2019-01-17T03:02:24.508Z,983.77
2019-01-17T03:03:24.478Z,983.66
2019-01-17T03:04:24.455Z,983.59
2019-01-17T03:05:24.437Z,983.61
2019-01-17T03:06:24.414Z,983.60
2019-01-17T03:07:24.387Z,983.62
2019-01-17T03:08:24.404Z,983.69
2019-01-17T03:09:24.337Z,983.65
2019-01-17T03:10:24.317Z,983.56
2019-01-17T03:11:24.295Z,983.46
2019-01-17T03:12:24.277Z,983.54
2019-01-17T03:13:24.248Z,983.54
2019-01-17T03:14:24.883Z,983.50
2019-01-17T03:15:24.199Z,983.52
2019-01-17T03:16:24.177Z,983.55
2019-01-17T03:17:24.154Z,983.52
2019-01-17T03:18:24.132Z,983.50
2019-01-17T03:19:24.890Z,983.47
2019-01-17T03:20:24.091Z,983.44
2019-01-17T03:21:24.883Z,983.40
2019-01-17T03:22:24.042Z,983.46
2019-01-17T03:23:24.022Z,983.45
2019-01-17T03:24:23.999Z,983.48
2019-01-17T03:25:23.973Z,983.43
2019-01-17T03:26:23.948Z,983.43
2019-01-17T03:27:23.923Z,983.41
2019-01-17T03:28:23.900Z,983.45
2019-01-17T03:29:23.882Z,983.44
2019-01-17T03:30:23.859Z,983.34
2019-01-17T03:31:23.837Z,983.29
2019-01-17T03:32:23.830Z,983.30
2019-01-17T03:33:23.786Z,983.27
2019-01-17T03:34:23.760Z,983.25
2019-01-17T03:35:23.744Z,983.29
2019-01-17T03:36:23.722Z,983.27
2019-01-17T03:37:23.697Z,983.31
2019-01-17T03:38:23.688Z,983.35
2019-01-17T03:39:23.645Z,983.29
2019-01-17T03:40:23.630Z,983.31
2019-01-17T03:41:23.603Z,983.26
2019-01-17T03:42:23.575Z,983.23
2019-01-17T03:43:23.559Z,983.23
2019-01-17T03:44:23.530Z,983.24
2019-01-17T03:45:23.514Z,983.31
2019-01-17T03:46:23.489Z,983.26
2019-01-17T03:47:23.460Z,983.31
2019-01-17T03:48:23.438Z,983.29
2019-01-17T03:49:23.421Z,983.26
2019-01-17T03:50:23.397Z,983.30
2019-01-17T03:51:23.372Z,983.24
2019-01-17T03:52:23.352Z,983.37
2019-01-17T03:53:23.335Z,983.28
2019-01-17T03:54:23.304Z,983.27
2019-01-17T03:55:23.297Z,983.24
2019-01-17T03:56:23.257Z,983.18
2019-01-17T03:57:23.244Z,983.20
2019-01-17T03:58:23.214Z,983.17
2019-01-17T03:59:23.190Z,983.13
2019-01-17T04:00:23.173Z,983.13
2019-01-17T04:01:23.144Z,983.11
2019-01-17T04:02:23.112Z,983.18
2019-01-17T04:03:23.090Z,983.15
2019-01-17T04:04:23.074Z,983.12
2019-01-17T04:05:23.049Z,983.07
2019-01-17T04:06:23.020Z,983.16
2019-01-17T04:07:23.006Z,983.11
2019-01-17T04:08:22.979Z,983.12
2019-01-17T04:09:22.953Z,983.06
2019-01-17T04:10:22.928Z,983.15
2019-01-17T04:11:22.907Z,983.07
2019-01-17T04:12:22.888Z,983.07
2019-01-17T04:13:22.864Z,983.06
2019-01-17T04:14:22.842Z,983.02
2019-01-17T04:15:22.821Z,983.01
2019-01-17T04:16:22.792Z,983.04
2019-01-17T04:17:22.774Z,983.03
2019-01-17T04:18:22.748Z,982.99
2019-01-17T04:19:22.724Z,982.96
2019-01-17T04:20:22.713Z,983.01
2019-01-17T04:21:22.677Z,982.95
2019-01-17T04:22:22.672Z,982.94
2019-01-17T04:23:22.640Z,982.90
2019-01-17T04:24:22.605Z,982.93
2019-01-17T04:25:22.590Z,982.92
2019-01-17T04:26:22.564Z,982.77
2019-01-17T04:27:22.541Z,982.89
2019-01-17T04:28:22.512Z,982.92
2019-01-17T04:29:22.497Z,982.84
2019-01-17T04:30:22.467Z,982.85
2019-01-17T04:31:22.453Z,982.89
2019-01-17T04:32:22.428Z,982.77
2019-01-17T04:33:22.405Z,982.87
2019-01-17T04:34:22.374Z,982.88
2019-01-17T04:35:22.351Z,982.83
2019-01-17T04:36:22.332Z,982.81
2019-01-17T04:37:22.306Z,982.80
2019-01-17T04:38:22.281Z,982.78
2019-01-17T04:39:22.272Z,982.75
2019-01-17T04:40:22.243Z,982.66
2019-01-17T04:41:22.209Z,982.75
2019-01-17T04:42:22.195Z,982.64
2019-01-17T04:43:22.165Z,982.77
2019-01-17T04:44:22.147Z,982.70
2019-01-17T04:45:22.123Z,982.71
2019-01-17T04:46:22.101Z,982.71
2019-01-17T04:47:22.072Z,982.72
2019-01-17T04:48:22.047Z,982.73
2019-01-17T04:49:22.036Z,982.61
2019-01-17T04:50:22.008Z,982.68
2019-01-17T04:51:21.983Z,982.66
2019-01-17T04:52:21.961Z,982.66
2019-01-17T04:53:21.937Z,982.71
2019-01-17T04:54:21.906Z,982.75
2019-01-17T04:55:21.883Z,982.65
2019-01-17T04:56:21.875Z,982.66
2019-01-17T04:57:21.839Z,982.71
2019-01-17T04:58:21.812Z,982.68
2019-01-17T04:59:21.790Z,982.64
2019-01-17T05:00:21.774Z,982.66
2019-01-17T05:01:21.743Z,982.74
2019-01-17T05:02:21.720Z,982.76
2019-01-17T05:03:21.699Z,982.76
2019-01-17T05:04:21.676Z,982.73
2019-01-17T05:05:21.649Z,982.72
2019-01-17T05:06:21.637Z,982.73
2019-01-17T05:07:21.609Z,982.68
2019-01-17T05:08:21.590Z,982.68
2019-01-17T05:09:21.561Z,982.66
2019-01-17T05:10:21.553Z,982.73
2019-01-17T05:11:21.514Z,982.62
2019-01-17T05:12:21.491Z,982.70
2019-01-17T05:13:21.469Z,982.68
2019-01-17T05:14:21.437Z,982.71
2019-01-17T05:15:21.422Z,982.72
2019-01-17T05:16:21.396Z,982.65
2019-01-17T05:17:21.373Z,982.67
2019-01-17T05:18:21.344Z,982.70
2019-01-17T05:19:21.330Z,982.67
2019-01-17T05:20:21.306Z,982.69
2019-01-17T05:21:21.281Z,982.67
2019-01-17T05:22:21.258Z,982.69
2019-01-17T05:23:21.231Z,982.67
2019-01-17T05:24:21.202Z,982.67
2019-01-17T05:25:21.182Z,982.71
2019-01-17T05:26:21.914Z,982.70
2019-01-17T05:27:21.147Z,982.76
2019-01-17T05:28:21.112Z,982.75
2019-01-17T05:29:21.086Z,982.75
2019-01-17T05:30:21.075Z,982.70
2019-01-17T05:31:21.048Z,982.67
2019-01-17T05:32:21.023Z,982.74
2019-01-17T05:33:21.006Z,982.70
2019-01-17T05:34:20.968Z,982.70
2019-01-17T05:35:20.946Z,982.66
2019-01-17T05:36:20.923Z,982.67
2019-01-17T05:37:20.900Z,982.67
2019-01-17T05:38:20.891Z,982.65
2019-01-17T05:39:20.849Z,982.68
2019-01-17T05:40:20.828Z,982.65
2019-01-17T05:41:20.803Z,982.64
2019-01-17T05:42:20.790Z,982.67
2019-01-17T05:43:20.764Z,982.75
2019-01-17T05:44:20.736Z,982.74
2019-01-17T05:45:20.716Z,982.70
2019-01-17T05:46:20.691Z,982.71
2019-01-17T05:47:20.671Z,982.70
2019-01-17T05:48:20.639Z,982.74
2019-01-17T05:49:20.621Z,982.73
2019-01-17T05:50:20.596Z,982.69
2019-01-17T05:51:20.573Z,982.71
2019-01-17T05:52:20.560Z,982.74
2019-01-17T05:53:20.525Z,982.80
2019-01-17T05:54:20.506Z,982.77
2019-01-17T05:55:20.480Z,982.73
2019-01-17T05:56:20.457Z,982.77
2019-01-17T05:57:20.432Z,982.73
2019-01-17T05:58:20.412Z,982.73
2019-01-17T05:59:20.387Z,982.71
2019-01-17T06:00:20.364Z,982.79
2019-01-17T06:01:20.333Z,982.77
2019-01-17T06:02:20.309Z,982.79
2019-01-17T06:03:20.284Z,982.82
2019-01-17T06:04:20.265Z,982.82
2019-01-17T06:05:20.243Z,982.82
2019-01-17T06:06:20.221Z,982.82
2019-01-17T06:07:20.192Z,982.74
2019-01-17T06:08:20.173Z,982.80
2019-01-17T06:09:20.155Z,982.80
2019-01-17T06:10:20.122Z,982.71
2019-01-17T06:11:20.102Z,982.69
2019-01-17T06:12:20.074Z,982.68
2019-01-17T06:13:20.048Z,982.68
2019-01-17T06:14:20.031Z,982.68
2019-01-17T06:15:20.009Z,982.62
2019-01-17T06:16:19.977Z,982.64
2019-01-17T06:17:19.961Z,982.62
2019-01-17T06:18:19.936Z,982.60
2019-01-17T06:19:19.907Z,982.58
2019-01-17T06:20:19.888Z,982.55
2019-01-17T06:21:19.859Z,982.63
2019-01-17T06:22:19.843Z,982.57
2019-01-17T06:23:19.819Z,982.56
2019-01-17T06:24:19.791Z,982.53
2019-01-17T06:25:27.810Z,982.54
2019-01-17T06:26:19.751Z,982.53
2019-01-17T06:27:19.717Z,982.51
2019-01-17T06:28:19.698Z,982.46
2019-01-17T06:29:19.676Z,982.50
2019-01-17T06:30:19.654Z,982.49
2019-01-17T06:31:19.625Z,982.51
2019-01-17T06:32:19.608Z,982.48
2019-01-17T06:33:19.576Z,982.48
2019-01-17T06:34:19.557Z,982.44
2019-01-17T06:35:19.535Z,982.47
2019-01-17T06:36:19.506Z,982.48
2019-01-17T06:37:19.487Z,982.46
2019-01-17T06:38:19.458Z,982.44
2019-01-17T06:39:19.442Z,982.41
2019-01-17T06:40:19.416Z,982.43
2019-01-17T06:41:19.395Z,982.37
2019-01-17T06:42:19.368Z,982.46
2019-01-17T06:43:19.340Z,982.47
2019-01-17T06:44:20.538Z,982.46
2019-01-17T06:45:19.298Z,982.44
2019-01-17T06:46:19.268Z,982.43
2019-01-17T06:47:19.250Z,982.43
2019-01-17T06:48:19.220Z,982.44
2019-01-17T06:49:19.197Z,982.47
2019-01-17T06:50:19.181Z,982.45
2019-01-17T06:51:19.156Z,982.45
2019-01-17T06:52:19.129Z,982.47
2019-01-17T06:53:19.100Z,982.50
2019-01-17T06:54:19.086Z,982.44
2019-01-17T06:55:19.065Z,982.51
2019-01-17T06:56:19.031Z,982.56
2019-01-17T06:57:19.009Z,982.47
2019-01-17T06:58:18.984Z,982.35
2019-01-17T06:59:18.967Z,982.45
2019-01-17T07:00:18.938Z,982.43
2019-01-17T07:01:18.913Z,982.50
2019-01-17T07:02:18.888Z,982.48
2019-01-17T07:03:18.868Z,982.56
2019-01-17T07:04:18.843Z,982.45
2019-01-17T07:05:18.824Z,982.48
2019-01-17T07:06:18.791Z,982.49
2019-01-17T07:07:18.781Z,982.48
2019-01-17T07:08:18.749Z,982.48
2019-01-17T07:09:18.727Z,982.52
2019-01-17T07:10:18.699Z,982.55
2019-01-17T07:11:18.676Z,982.53
2019-01-17T07:12:18.658Z,982.49
2019-01-17T07:13:18.629Z,982.43
2019-01-17T07:14:18.607Z,982.50
2019-01-17T07:15:18.581Z,982.49
2019-01-17T07:16:18.562Z,982.49
2019-01-17T07:17:18.541Z,982.48
2019-01-17T07:18:18.507Z,982.52
2019-01-17T07:19:18.492Z,982.49
2019-01-17T07:20:18.462Z,982.56
2019-01-17T07:21:18.437Z,982.49
2019-01-17T07:22:18.422Z,982.50
2019-01-17T07:23:18.390Z,982.51
2019-01-17T07:24:18.368Z,982.51
2019-01-17T07:25:18.348Z,982.49
2019-01-17T07:26:18.326Z,982.52
2019-01-17T07:27:18.304Z,982.47
2019-01-17T07:28:18.278Z,982.51
2019-01-17T07:29:18.253Z,982.45
2019-01-17T07:30:18.226Z,982.51
2019-01-17T07:31:18.209Z,982.47
2019-01-17T07:32:18.177Z,982.50
2019-01-17T07:33:18.151Z,982.49
2019-01-17T07:34:18.131Z,982.48
2019-01-17T07:35:18.111Z,982.47
2019-01-17T07:36:18.090Z,982.43
2019-01-17T07:37:18.062Z,982.51
2019-01-17T07:38:18.039Z,982.50
2019-01-17T07:39:18.015Z,982.46
2019-01-17T07:40:17.991Z,982.45
2019-01-17T07:41:17.964Z,982.43
2019-01-17T07:42:17.939Z,982.46
2019-01-17T07:43:17.916Z,982.45
2019-01-17T07:44:17.894Z,982.48
2019-01-17T07:45:17.872Z,982.50
2019-01-17T07:46:17.843Z,982.51
2019-01-17T07:47:17.822Z,982.46
2019-01-17T07:48:17.806Z,982.47
2019-01-17T07:49:17.780Z,982.50
2019-01-17T07:50:17.758Z,982.45
2019-01-17T07:51:17.732Z,982.41
2019-01-17T07:52:17.704Z,982.39
2019-01-17T07:53:17.687Z,982.40
2019-01-17T07:54:17.662Z,982.43
2019-01-17T07:55:17.636Z,982.41
2019-01-17T07:56:17.620Z,982.46
2019-01-17T07:57:17.591Z,982.46
2019-01-17T07:58:17.568Z,982.47
2019-01-17T07:59:17.547Z,982.54
2019-01-17T08:00:17.517Z,982.50
2019-01-17T08:01:17.492Z,982.54
2019-01-17T08:02:17.488Z,982.58
2019-01-17T08:03:17.445Z,982.58
2019-01-17T08:04:17.423Z,982.61
2019-01-17T08:05:17.398Z,982.57
2019-01-17T08:06:17.372Z,982.62
2019-01-17T08:07:17.356Z,982.59
2019-01-17T08:08:17.328Z,982.54
2019-01-17T08:09:17.302Z,982.56
2019-01-17T08:10:17.280Z,982.57
2019-01-17T08:11:17.254Z,982.50
2019-01-17T08:12:17.233Z,982.52
2019-01-17T08:13:17.206Z,982.54
2019-01-17T08:14:17.183Z,982.56
2019-01-17T08:15:17.163Z,982.49
2019-01-17T08:16:17.139Z,982.56
2019-01-17T08:17:17.116Z,982.53
2019-01-17T08:18:18.811Z,982.53
2019-01-17T08:19:17.074Z,982.56
2019-01-17T08:20:17.048Z,982.57
2019-01-17T08:21:17.026Z,982.60
2019-01-17T08:22:17.001Z,982.53
2019-01-17T08:23:16.978Z,982.51
2019-01-17T08:24:16.950Z,982.55
2019-01-17T08:25:16.930Z,982.58
2019-01-17T08:26:16.908Z,982.49
2019-01-17T08:27:16.881Z,982.52
2019-01-17T08:28:16.858Z,982.51
2019-01-17T08:29:16.839Z,982.55
2019-01-17T08:30:16.810Z,982.51
2019-01-17T08:31:16.785Z,982.56
2019-01-17T08:32:16.759Z,982.57
2019-01-17T08:33:16.737Z,982.57
2019-01-17T08:34:16.718Z,982.56
2019-01-17T08:35:16.695Z,982.58
2019-01-17T08:36:16.673Z,982.62
2019-01-17T08:37:16.650Z,982.62
2019-01-17T08:38:16.619Z,982.68
2019-01-17T08:39:16.603Z,982.64
2019-01-17T08:40:20.294Z,982.65
2019-01-17T08:41:16.557Z,982.64
2019-01-17T08:42:16.534Z,982.74
2019-01-17T08:43:16.511Z,982.70
2019-01-17T08:44:16.483Z,982.72
2019-01-17T08:45:16.456Z,982.76
2019-01-17T08:46:16.442Z,982.78
2019-01-17T08:47:16.414Z,982.75
2019-01-17T08:48:16.392Z,982.75
2019-01-17T08:49:16.363Z,982.76
2019-01-17T08:50:16.339Z,982.76
2019-01-17T08:51:16.327Z,982.75
2019-01-17T08:52:16.293Z,982.72
2019-01-17T08:53:16.268Z,982.71
2019-01-17T08:54:16.255Z,982.64
2019-01-17T08:55:16.225Z,982.64
2019-01-17T08:56:16.198Z,982.53
2019-01-17T08:57:16.183Z,982.56
2019-01-17T08:58:16.163Z,982.57
2019-01-17T08:59:16.131Z,982.58
2019-01-17T09:00:16.105Z,982.62
2019-01-17T09:01:16.088Z,982.65
2019-01-17T09:02:16.063Z,982.68
2019-01-17T09:03:16.045Z,982.75
2019-01-17T09:04:16.013Z,982.67
2019-01-17T09:05:15.991Z,982.70
2019-01-17T09:06:15.972Z,982.71
2019-01-17T09:07:15.949Z,982.71
2019-01-17T09:08:15.924Z,982.68
2019-01-17T09:09:15.901Z,982.73
2019-01-17T09:10:15.880Z,982.74
2019-01-17T09:11:15.854Z,982.72
2019-01-17T09:12:15.825Z,982.71
2019-01-17T09:13:15.803Z,982.73
2019-01-17T09:14:15.795Z,982.73
2019-01-17T09:15:15.761Z,982.68
2019-01-17T09:16:15.739Z,982.71
2019-01-17T09:17:15.717Z,982.79
2019-01-17T09:18:15.690Z,982.81
2019-01-17T09:19:15.668Z,982.84
2019-01-17T09:20:15.643Z,982.88
2019-01-17T09:21:15.626Z,982.85
2019-01-17T09:22:15.594Z,982.87
2019-01-17T09:23:15.572Z,982.86
2019-01-17T09:24:15.553Z,982.88
2019-01-17T09:25:15.530Z,982.92
2019-01-17T09:26:15.508Z,982.91
2019-01-17T09:27:15.482Z,982.96
2019-01-17T09:28:15.460Z,982.96
2019-01-17T09:29:15.429Z,982.97
2019-01-17T09:30:15.407Z,982.94
2019-01-17T09:31:15.387Z,982.97
2019-01-17T09:32:15.368Z,982.91
2019-01-17T09:33:15.336Z,982.89
2019-01-17T09:34:15.313Z,982.80
2019-01-17T09:35:15.291Z,982.77
2019-01-17T09:36:15.269Z,982.78
2019-01-17T09:37:15.247Z,982.77
2019-01-17T09:38:15.223Z,982.84
2019-01-17T09:39:15.198Z,982.85
2019-01-17T09:40:15.183Z,982.87
2019-01-17T09:41:15.153Z,982.86
2019-01-17T09:42:15.134Z,982.88
2019-01-17T09:43:15.111Z,982.95
2019-01-17T09:44:15.083Z,982.96
2019-01-17T09:45:15.056Z,982.93
2019-01-17T09:46:15.039Z,982.92
2019-01-17T09:47:15.017Z,982.92
2019-01-17T09:48:14.995Z,982.93
2019-01-17T09:49:14.967Z,982.90
2019-01-17T09:50:14.945Z,982.93
2019-01-17T09:51:14.921Z,982.92
2019-01-17T09:52:14.907Z,982.94
2019-01-17T09:53:14.882Z,982.97
2019-01-17T09:54:14.851Z,982.96
2019-01-17T09:55:14.833Z,982.96
2019-01-17T09:56:15.059Z,983.04
2019-01-17T09:57:14.780Z,983.02
2019-01-17T09:58:14.758Z,983.01
2019-01-17T09:59:14.742Z,983.03
2019-01-17T10:00:14.713Z,983.00
2019-01-17T10:01:14.688Z,983.05
2019-01-17T10:02:14.666Z,983.06
2019-01-17T10:03:14.643Z,983.07
2019-01-17T10:04:14.621Z,983.14
2019-01-17T10:05:14.596Z,983.13
2019-01-17T10:06:14.570Z,983.10
2019-01-17T10:07:14.550Z,983.13
2019-01-17T10:08:14.531Z,983.11
2019-01-17T10:09:14.509Z,983.08
2019-01-17T10:10:14.482Z,983.09
2019-01-17T10:11:14.464Z,983.06
2019-01-17T10:12:14.438Z,983.03
2019-01-17T10:13:14.414Z,983.04
2019-01-17T10:14:14.389Z,983.06
2019-01-17T10:15:14.366Z,982.99
2019-01-17T10:16:14.344Z,983.00
2019-01-17T10:17:14.553Z,983.03
2019-01-17T10:18:14.296Z,983.06
2019-01-17T10:19:14.278Z,983.06
2019-01-17T10:20:14.251Z,983.04
2019-01-17T10:21:14.229Z,983.07
2019-01-17T10:22:14.207Z,983.06
2019-01-17T10:23:14.191Z,983.13
2019-01-17T10:24:14.162Z,983.16
2019-01-17T10:25:14.143Z,983.19
2019-01-17T10:26:14.111Z,983.18
2019-01-17T10:27:14.095Z,983.19
2019-01-17T10:28:14.069Z,983.19
2019-01-17T10:29:14.056Z,983.18
2019-01-17T10:30:14.032Z,983.21
2019-01-17T10:31:14.003Z,983.23
2019-01-17T10:32:13.989Z,983.25
2019-01-17T10:33:13.957Z,983.29
2019-01-17T10:34:13.942Z,983.28
2019-01-17T10:35:13.918Z,983.24
2019-01-17T10:36:13.894Z,983.18
2019-01-17T10:37:13.868Z,983.32
2019-01-17T10:38:13.850Z,983.27
2019-01-17T10:39:13.833Z,983.23
2019-01-17T10:40:13.801Z,983.28
2019-01-17T10:41:13.797Z,983.23
2019-01-17T10:42:13.756Z,983.28
2019-01-17T10:43:13.734Z,983.30
2019-01-17T10:44:13.718Z,983.24
2019-01-17T10:45:13.700Z,983.33
2019-01-17T10:46:13.670Z,983.37
2019-01-17T10:47:13.651Z,983.38
2019-01-17T10:48:13.630Z,983.42
2019-01-17T10:49:13.608Z,983.41
2019-01-17T10:50:13.579Z,983.45
2019-01-17T10:51:13.563Z,983.37
2019-01-17T10:52:13.540Z,983.38
2019-01-17T10:53:13.517Z,983.31
2019-01-17T10:54:13.489Z,983.30
2019-01-17T10:55:13.499Z,983.20
2019-01-17T10:56:13.463Z,983.28
2019-01-17T10:57:13.626Z,983.23
2019-01-17T10:58:13.401Z,983.28
2019-01-17T10:59:13.386Z,983.29
2019-01-17T11:00:13.360Z,983.26
2019-01-17T11:01:13.343Z,983.29
2019-01-17T11:02:13.320Z,983.24
2019-01-17T11:03:13.295Z,983.32
2019-01-17T11:04:13.272Z,983.26
2019-01-17T11:05:13.256Z,983.17
2019-01-17T11:06:13.262Z,983.26
2019-01-17T11:07:13.268Z,983.24
2019-01-17T11:08:13.217Z,983.25
2019-01-17T11:09:13.176Z,983.19
2019-01-17T11:10:13.146Z,983.21
2019-01-17T11:11:13.136Z,983.20
2019-01-17T11:12:13.115Z,983.18
2019-01-17T11:13:13.095Z,983.16
2019-01-17T11:14:13.070Z,983.18
2019-01-17T11:15:13.054Z,983.17
2019-01-17T11:16:13.026Z,983.16
2019-01-17T11:17:13.013Z,983.17
2019-01-17T11:18:12.986Z,983.14
2019-01-17T11:19:12.969Z,983.04
2019-01-17T11:20:12.947Z,983.08
2019-01-17T11:21:12.927Z,982.99
2019-01-17T11:22:12.911Z,982.97
2019-01-17T11:23:12.886Z,982.95
2019-01-17T11:24:12.866Z,982.88
2019-01-17T11:25:12.844Z,982.93
2019-01-17T11:26:12.830Z,982.96
2019-01-17T11:27:12.808Z,982.95
2019-01-17T11:28:12.782Z,982.98
2019-01-17T11:29:12.766Z,982.93
2019-01-17T11:30:12.739Z,982.88
2019-01-17T11:31:12.718Z,982.85
2019-01-17T11:32:12.702Z,982.81
2019-01-17T11:33:12.680Z,982.82
2019-01-17T11:34:12.658Z,982.77
2019-01-17T11:35:12.631Z,982.80
2019-01-17T11:36:12.612Z,982.78
2019-01-17T11:37:12.589Z,982.83
2019-01-17T11:38:12.570Z,982.77
2019-01-17T11:39:12.548Z,982.88
2019-01-17T11:40:12.519Z,982.90
2019-01-17T11:41:12.497Z,982.78
2019-01-17T11:42:12.479Z,982.78
2019-01-17T11:43:12.461Z,982.79
2019-01-17T11:44:12.433Z,982.74
2019-01-17T11:45:12.407Z,982.72
2019-01-17T11:46:12.388Z,982.77
2019-01-17T11:47:12.368Z,982.80
2019-01-17T11:48:12.343Z,982.78
2019-01-17T11:49:12.329Z,982.74
2019-01-17T11:50:12.302Z,982.79
2019-01-17T11:51:12.280Z,982.79
2019-01-17T11:52:12.260Z,982.80
2019-01-17T11:53:12.227Z,982.72
2019-01-17T11:54:12.211Z,982.87
2019-01-17T11:55:12.183Z,982.88
2019-01-17T11:56:12.167Z,982.84
2019-01-17T11:57:12.138Z,982.84
2019-01-17T11:58:12.126Z,982.77
2019-01-17T11:59:12.093Z,982.73
2019-01-17T12:00:12.074Z,982.72
2019-01-17T12:01:12.047Z,982.63
2019-01-17T12:02:12.031Z,982.70
2019-01-17T12:03:12.015Z,982.66
2019-01-17T12:04:11.982Z,982.68
2019-01-17T12:05:11.961Z,982.62
2019-01-17T12:06:11.941Z,982.62
2019-01-17T12:07:11.919Z,982.65
2019-01-17T12:08:11.900Z,982.65
2019-01-17T12:09:11.877Z,982.69
2019-01-17T12:10:11.862Z,982.65
2019-01-17T12:11:11.846Z,982.68
2019-01-17T12:12:11.824Z,982.66
2019-01-17T12:13:17.331Z,982.67
2019-01-17T12:14:11.779Z,982.60
2019-01-17T12:15:11.756Z,982.61
2019-01-17T12:16:11.739Z,982.62
2019-01-17T12:17:11.718Z,982.65
2019-01-17T12:18:11.693Z,982.59
2019-01-17T12:19:11.718Z,982.62
2019-01-17T12:20:11.655Z,982.55
2019-01-17T12:21:11.634Z,982.56
2019-01-17T12:22:11.614Z,982.48
2019-01-17T12:23:11.595Z,982.50
2019-01-17T12:24:11.578Z,982.44
2019-01-17T12:25:11.549Z,982.40
2019-01-17T12:26:11.530Z,982.42
2019-01-17T12:27:11.514Z,982.48
2019-01-17T12:28:11.485Z,982.43